Observation data for Haskell on 12/12/2018      Previous  Date       Current Mesonet Observations  Soil Data  Daily Summary Page  Observations in Plain Language
KHA1 120600Z 21008KT 08/05 A3003 RMK A01 T00760054  RH  088%=      5-min Rain = 0
KHA1 120605Z 20008KT 08/05 A3002 RMK A01 T00780054  RH  087%=      5-min Rain = 0
KHA1 120610Z 19008KT 08/06 A3001 RMK A01 T00800055  RH  086%=      5-min Rain = 0
KHA1 120615Z 19008KT 08/06 A30 RMK A01 T00820055  RH  085%=      5-min Rain = 0
KHA1 120620Z 19008KT 08/06 A30 RMK A01 T00800055  RH  086%=      5-min Rain = 0
KHA1 120625Z 19009KT 08/06 A30 RMK A01 T00830055  RH  084%=      5-min Rain = 0
KHA1 120630Z 19008KT 08/06 A30 RMK A01 T00840055  RH  084%=      5-min Rain = 0
KHA1 120635Z 19007KT 08/06 A30 RMK A01 T00840055  RH  084%=      5-min Rain = 0
KHA1 120640Z 19008KT 08/06 A30 RMK A01 T00840055  RH  084%=      5-min Rain = 0
KHA1 120645Z 20008KT 08/05 A30 RMK A01 T00810054  RH  085%=      5-min Rain = 0
KHA1 120650Z 20007KT 08/05 A30 RMK A01 T00790053  RH  086%=      5-min Rain = 0
KHA1 120655Z 20007KT 08/05 A30 RMK A01 T00770053  RH  087%=      5-min Rain = 0
KHA1 120700Z 19007KT 08/05 A30 RMK A01 T00780053  RH  086%=      5-min Rain = 0
KHA1 120705Z 19006KT 08/05 A30 RMK A01 T00780053  RH  086%=      5-min Rain = 0
KHA1 120710Z 19007KT 08/05 A30 RMK A01 T00780053  RH  086%=      5-min Rain = 0
KHA1 120715Z 19006KT 08/05 A30 RMK A01 T00780053  RH  086%=      5-min Rain = 0
KHA1 120720Z 19006KT 08/05 A2999 RMK A01 T00760052  RH  087%=      5-min Rain = 0
KHA1 120725Z 19006KT 08/05 A2999 RMK A01 T00760052  RH  087%=      5-min Rain = 0
KHA1 120730Z 19007KT 08/05 A2999 RMK A01 T00760052  RH  087%=      5-min Rain = 0
KHA1 120735Z 19007KT 07/05 A2999 RMK A01 T00730051  RH  088%=      5-min Rain = 0
KHA1 120740Z 19007KT 07/05 A2998 RMK A01 T00740052  RH  088%=      5-min Rain = 0
KHA1 120745Z 18006KT 07/05 A2998 RMK A01 T00740052  RH  088%=      5-min Rain = 0
KHA1 120750Z 19006KT 08/05 A2998 RMK A01 T00750052  RH  088%=      5-min Rain = 0
KHA1 120755Z 19006KT 08/05 A2998 RMK A01 T00750052  RH  087%=      5-min Rain = 0
KHA1 120800Z 18005KT 07/05 A2998 RMK A01 T00740052  RH  088%=      5-min Rain = 0
KHA1 120805Z 18005KT 07/05 A2998 RMK A01 T00730051  RH  088%=      5-min Rain = 0
KHA1 120810Z 18006KT 07/05 A2998 RMK A01 T00720051  RH  088%=      5-min Rain = 0
KHA1 120815Z 19007KT 07/05 A2997 RMK A01 T00720051  RH  088%=      5-min Rain = 0
KHA1 120820Z 19007KT 07/05 A2997 RMK A01 T00730051  RH  088%=      5-min Rain = 0
KHA1 120825Z 19007KT 07/05 A2997 RMK A01 T00730051  RH  088%=      5-min Rain = 0
KHA1 120830Z 19008KT 07/05 A2997 RMK A01 T00710050  RH  088%=      5-min Rain = 0
KHA1 120835Z 19008KT 07/05 A2997 RMK A01 T00700050  RH  089%=      5-min Rain = 0
KHA1 120840Z 19008KT 07/05 A2997 RMK A01 T00710051  RH  089%=      5-min Rain = 0
KHA1 120845Z 19009KT 07/05 A2997 RMK A01 T00740051  RH  088%=      5-min Rain = 0
KHA1 120850Z 19008KT 07/05 A2997 RMK A01 T00730051  RH  087%=      5-min Rain = 0
KHA1 120855Z 19008KT 07/05 A2997 RMK A01 T00710050  RH  088%=      5-min Rain = 0
KHA1 120900Z 19008KT 07/05 A2996 RMK A01 T00720050  RH  088%=      5-min Rain = 0
KHA1 120905Z 19007KT 07/05 A2996 RMK A01 T00700049  RH  089%=      5-min Rain = 0
KHA1 120910Z 19008KT 07/05 A2996 RMK A01 T00680049  RH  089%=      5-min Rain = 0
KHA1 120915Z 19008KT 07/05 A2996 RMK A01 T00670048  RH  090%=      5-min Rain = 0
KHA1 120920Z 20007KT 07/05 A2997 RMK A01 T00660048  RH  090%=      5-min Rain = 0
KHA1 120925Z 20008KT 07/05 A2996 RMK A01 T00660048  RH  090%=      5-min Rain = 0
KHA1 120930Z 20008KT 07/05 A2996 RMK A01 T00680049  RH  090%=      5-min Rain = 0
KHA1 120935Z 20006KT 07/05 A2996 RMK A01 T00660048  RH  090%=      5-min Rain = 0
KHA1 120940Z 19007KT 07/05 A2995 RMK A01 T00670048  RH  090%=      5-min Rain = 0
KHA1 120945Z 19006KT 07/05 A2995 RMK A01 T00660047  RH  090%=      5-min Rain = 0
KHA1 120950Z 18006KT 07/05 A2995 RMK A01 T00650047  RH  090%=      5-min Rain = 0
KHA1 120955Z 18006KT 07/05 A2994 RMK A01 T00650047  RH  090%=      5-min Rain = 0
KHA1 121000Z 19006KT 07/05 A2994 RMK A01 T00650047  RH  090%=      5-min Rain = 0
KHA1 121005Z 18006KT 07/05 A2994 RMK A01 T00650047  RH  090%=      5-min Rain = 0
KHA1 121010Z 19006KT 07/05 A2995 RMK A01 T00660047  RH  090%=      5-min Rain = 0
KHA1 121015Z 19007KT 07/05 A2994 RMK A01 T00650047  RH  090%=      5-min Rain = 0
KHA1 121020Z 19007KT 06/05 A2994 RMK A01 T00640046  RH  090%=      5-min Rain = 0
KHA1 121025Z 19007KT 06/05 A2994 RMK A01 T00640046  RH  090%=      5-min Rain = 0
KHA1 121030Z 19008KT 06/05 A2994 RMK A01 T00630046  RH  091%=      5-min Rain = 0
KHA1 121035Z 19008KT 06/05 A2994 RMK A01 T00620045  RH  091%=      5-min Rain = 0
KHA1 121040Z 20008KT 06/05 A2994 RMK A01 T00630046  RH  091%=      5-min Rain = 0
KHA1 121045Z 20008KT 07/05 A2995 RMK A01 T00650047  RH  091%=      5-min Rain = 0
KHA1 121050Z 20007KT 07/05 A2995 RMK A01 T00650047  RH  090%=      5-min Rain = 0
KHA1 121055Z 20007KT 06/05 A2995 RMK A01 T00640047  RH  091%=      5-min Rain = 0
KHA1 121100Z 20006KT 06/05 A2995 RMK A01 T00640047  RH  091%=      5-min Rain = 0
KHA1 121105Z 20006KT 06/05 A2995 RMK A01 T00620046  RH  091%=      5-min Rain = 0
KHA1 121110Z 19006KT 06/05 A2995 RMK A01 T00620047  RH  092%=      5-min Rain = 0
KHA1 121115Z 20005KT 07/05 A2994 RMK A01 T00650048  RH  091%=      5-min Rain = 0
KHA1 121120Z 19005KT 07/05 A2994 RMK A01 T00660048  RH  090%=      5-min Rain = 0
KHA1 121125Z 19006KT 07/05 A2994 RMK A01 T00650048  RH  091%=      5-min Rain = 0
KHA1 121130Z 19005KT 07/05 A2994 RMK A01 T00660048  RH  090%=      5-min Rain = 0
KHA1 121135Z 20004KT 07/05 A2994 RMK A01 T00650048  RH  091%=      5-min Rain = 0
KHA1 121140Z 20006KT 07/05 A2994 RMK A01 T00650048  RH  090%=      5-min Rain = 0
KHA1 121145Z 19005KT 07/05 A2993 RMK A01 T00670049  RH  091%=      5-min Rain = 0
KHA1 121150Z 19003KT 07/05 A2994 RMK A01 T00680049  RH  089%=      5-min Rain = 0
KHA1 121155Z 19004KT 07/05 A2994 RMK A01 T00680049  RH  089%=      5-min Rain = 0
KHA1 121200Z 18005KT 07/05 A2994 RMK A01 T00680049  RH  089%=      5-min Rain = 0
KHA1 121205Z 18005KT 07/05 A2994 RMK A01 T00690049  RH  089%=      5-min Rain = 0
KHA1 121210Z 18005KT 07/05 A2994 RMK A01 T00700050  RH  089%=      5-min Rain = 0
KHA1 121215Z 19005KT 07/05 A2994 RMK A01 T00680049  RH  089%=      5-min Rain = 0
KHA1 121220Z 19005KT 06/05 A2994 RMK A01 T00640046  RH  090%=      5-min Rain = 0
KHA1 121225Z 19004KT 06/05 A2993 RMK A01 T00610045  RH  091%=      5-min Rain = 0
KHA1 121230Z 19004KT 06/05 A2993 RMK A01 T00600045  RH  092%=      5-min Rain = 0
KHA1 121235Z 20004KT 06/04 A2993 RMK A01 T00580043  RH  092%=      5-min Rain = 0
KHA1 121240Z 20004KT 06/04 A2994 RMK A01 T00570043  RH  093%=      5-min Rain = 0
KHA1 121245Z 20004KT 06/04 A2994 RMK A01 T00560042  RH  093%=      5-min Rain = 0
KHA1 121250Z 20005KT 05/04 A2994 RMK A01 T00540042  RH  094%=      5-min Rain = 0
KHA1 121255Z 19004KT 06/05 A2994 RMK A01 T00570045  RH  094%=      5-min Rain = 0
KHA1 121300Z 19004KT 06/05 A2993 RMK A01 T00590046  RH  093%=      5-min Rain = 0
KHA1 121305Z 19005KT 06/05 A2993 RMK A01 T00610047  RH  092%=      5-min Rain = 0
KHA1 121310Z 19005KT 06/05 A2993 RMK A01 T00630047  RH  092%=      5-min Rain = 0
KHA1 121315Z 18004KT 06/05 A2993 RMK A01 T00620047  RH  092%=      5-min Rain = 0
KHA1 121320Z 19003KT 06/04 A2993 RMK A01 T00590043  RH  091%=      5-min Rain = 0
KHA1 121325Z 18004KT 06/04 A2993 RMK A01 T00580044  RH  093%=      5-min Rain = 0
KHA1 121330Z 18004KT 06/05 A2993 RMK A01 T00610047  RH  093%=      5-min Rain = 0
KHA1 121335Z 18005KT 06/05 A2993 RMK A01 T00630047  RH  092%=      5-min Rain = 0
KHA1 121340Z 18005KT 06/05 A2993 RMK A01 T00640048  RH  091%=      5-min Rain = 0
KHA1 121345Z 18005KT 06/05 A2993 RMK A01 T00640048  RH  091%=      5-min Rain = 0
KHA1 121350Z 18005KT 06/05 A2992 RMK A01 T00620047  RH  092%=      5-min Rain = 0
KHA1 121355Z 18005KT 06/05 A2992 RMK A01 T00620047  RH  092%=      5-min Rain = 0
KHA1 121400Z 19005KT 06/05 A2992 RMK A01 T00610046  RH  092%=      5-min Rain = 0
KHA1 121405Z 20004KT 06/04 A2992 RMK A01 T00580043  RH  092%=      5-min Rain = 0
KHA1 121410Z 19005KT 06/05 A2992 RMK A01 T00590046  RH  094%=      5-min Rain = 0
KHA1 121415Z 18005KT 06/05 A2992 RMK A01 T00610047  RH  093%=      5-min Rain = 0
KHA1 121420Z 19004KT 06/05 A2992 RMK A01 T00610047  RH  093%=      5-min Rain = 0
KHA1 121425Z 18003KT 06/05 A2992 RMK A01 T00610047  RH  093%=      5-min Rain = 0
KHA1 121430Z 18004KT 06/05 A2992 RMK A01 T00610047  RH  093%=      5-min Rain = 0
KHA1 121435Z 18005KT 06/05 A2992 RMK A01 T00610048  RH  093%=      5-min Rain = 0
KHA1 121440Z 18004KT 06/05 A2992 RMK A01 T00620048  RH  093%=      5-min Rain = 0
KHA1 121445Z 19004KT 06/05 A2991 RMK A01 T00610048  RH  093%=      5-min Rain = 0
KHA1 121450Z 19005KT 06/05 A2992 RMK A01 T00610048  RH  094%=      5-min Rain = 0
KHA1 121455Z 19005KT 06/05 A2992 RMK A01 T00630050  RH  094%=      5-min Rain = 0
KHA1 121500Z 20006KT 07/05 A2992 RMK A01 T00650052  RH  093%=      5-min Rain = 0
KHA1 121505Z 20007KT 07/05 A2992 RMK A01 T00690054  RH  092%=      5-min Rain = 0
KHA1 121510Z 21007KT 07/05 A2992 RMK A01 T00690053  RH  091%=      5-min Rain = 0
KHA1 121515Z 20006KT 07/05 A2992 RMK A01 T00680052  RH  092%=      5-min Rain = 0
KHA1 121520Z 20006KT 07/05 A2992 RMK A01 T00680053  RH  092%=      5-min Rain = 0
KHA1 121525Z 21005KT 07/05 A2993 RMK A01 T00680053  RH  092%=      5-min Rain = 0
KHA1 121530Z 22005KT 07/05 A2993 RMK A01 T00690054  RH  092%=      5-min Rain = 0
KHA1 121535Z 22005KT 07/06 A2992 RMK A01 T00700055  RH  092%=      5-min Rain = 0
KHA1 121540Z 23005KT 07/06 A2992 RMK A01 T00720057  RH  092%=      5-min Rain = 0
KHA1 121545Z 23005KT 07/06 A2992 RMK A01 T00730057  RH  092%=      5-min Rain = 0
KHA1 121550Z 23006KT 08/06 A2992 RMK A01 T00750058  RH  091%=      5-min Rain = 0
KHA1 121555Z 26006KT 08/06 A2993 RMK A01 T00770061  RH  092%=      5-min Rain = 0
KHA1 121600Z 26006KT 08/06 A2992 RMK A01 T00780061  RH  091%=      5-min Rain = 0
KHA1 121605Z 25007KT 08/06 A2992 RMK A01 T00800063  RH  091%=      5-min Rain = 0
KHA1 121610Z 25007KT 08/06 A2992 RMK A01 T00820063  RH  091%=      5-min Rain = 0
KHA1 121615Z 26006KT 08/07 A2992 RMK A01 T00840066  RH  090%=      5-min Rain = 0
KHA1 121620Z 26007KT 09/07 A2992 RMK A01 T00860066  RH  090%=      5-min Rain = 0
KHA1 121625Z 26008KT 09/07 A2992 RMK A01 T00860065  RH  089%=      5-min Rain = 0
KHA1 121630Z 26009KT 09/06 A2992 RMK A01 T00850064  RH  088%=      5-min Rain = 0
KHA1 121635Z 26009KT 09/06 A2992 RMK A01 T00860064  RH  089%=      5-min Rain = 0
KHA1 121640Z 26008KT 09/06 A2992 RMK A01 T00850063  RH  088%=      5-min Rain = 0
KHA1 121645Z 26008KT 09/06 A2992 RMK A01 T00850064  RH  089%=      5-min Rain = 0
KHA1 121650Z 29008KT 08/06 A2991 RMK A01 T00840063  RH  088%=      5-min Rain = 0
KHA1 121655Z 29007KT 08/06 A2992 RMK A01 T00830063  RH  090%=      5-min Rain = 0
KHA1 121700Z 28007KT 08/06 A2991 RMK A01 T00830063  RH  089%=      5-min Rain = 0
KHA1 121705Z 27007KT 09/06 A2991 RMK A01 T00850062  RH  087%=      5-min Rain = 0
KHA1 121710Z 26008KT 09/06 A2991 RMK A01 T00870062  RH  087%=      5-min Rain = 0
KHA1 121715Z 26009KT 09/06 A2991 RMK A01 T00900062  RH  085%=      5-min Rain = 0
KHA1 121720Z 27009KT 09/06 A2991 RMK A01 T00910062  RH  084%=      5-min Rain = 0
KHA1 121725Z 26010KT 09/06 A2991 RMK A01 T00930062  RH  083%=      5-min Rain = 0
KHA1 121730Z 27010KT 09/06 A299 RMK A01 T00940061  RH  082%=      5-min Rain = 0
KHA1 121735Z 26010KT 09/06 A299 RMK A01 T00940060  RH  081%=      5-min Rain = 0
KHA1 121740Z 25012KT 10/05 A299 RMK A01 T00950054  RH  078%=      5-min Rain = 0
KHA1 121745Z 25010KT 10/06 A2989 RMK A01 T00960056  RH  078%=      5-min Rain = 0
KHA1 121750Z 24012KT 10/05 A2989 RMK A01 T00950053  RH  076%=      5-min Rain = 0
KHA1 121755Z 24010KT 10/06 A2989 RMK A01 T00980057  RH  078%=      5-min Rain = 0
KHA1 121800Z 24010KT 10/06 A2989 RMK A01 T00990055  RH  076%=      5-min Rain = 0
KHA1 121805Z 24011KT 10/06 A2988 RMK A01 T01000056  RH  076%=      5-min Rain = 0
KHA1 121810Z 25011KT 10/06 A2988 RMK A01 T01010056  RH  075%=      5-min Rain = 0
KHA1 121815Z 25011KT 10/06 A2988 RMK A01 T01010056  RH  075%=      5-min Rain = 0
KHA1 121820Z 26011KT 10/06 A2988 RMK A01 T01020058  RH  076%=      5-min Rain = 0
KHA1 121825Z 26010KT 10/06 A2988 RMK A01 T01040061  RH  077%=      5-min Rain = 0
KHA1 121830Z 26009KT 10/06 A2987 RMK A01 T01030060  RH  076%=      5-min Rain = 0
KHA1 121835Z 26010KT 10/06 A2987 RMK A01 T01030061  RH  077%=      5-min Rain = 0
KHA1 121840Z 26010KT 10/06 A2987 RMK A01 T01040062  RH  077%=      5-min Rain = 0
KHA1 121845Z 25010KT 10/06 A2987 RMK A01 T01030060  RH  076%=      5-min Rain = 0
KHA1 121850Z 25009KT 11/06 A2987 RMK A01 T01050063  RH  077%=      5-min Rain = 0
KHA1 121855Z 25010KT 11/06 A2986 RMK A01 T01050062  RH  076%=      5-min Rain = 0
KHA1 121900Z 25010KT 11/06 A2986 RMK A01 T01050060  RH  075%=      5-min Rain = 0
KHA1 121905Z 23009KT 11/06 A2986 RMK A01 T01050061  RH  076%=      5-min Rain = 0
KHA1 121910Z 24009KT 11/06 A2986 RMK A01 T01070060  RH  074%=      5-min Rain = 0
KHA1 121915Z 24010KT 11/06 A2986 RMK A01 T01090061  RH  074%=      5-min Rain = 0
KHA1 121920Z 24010KT 11/06 A2986 RMK A01 T01100060  RH  073%=      5-min Rain = 0
KHA1 121925Z 25010KT 11/06 A2985 RMK A01 T01110059  RH  072%=      5-min Rain = 0
KHA1 121930Z 25009KT 11/06 A2985 RMK A01 T01120062  RH  073%=      5-min Rain = 0
KHA1 121935Z 24009KT 11/06 A2984 RMK A01 T01140062  RH  072%=      5-min Rain = 0
KHA1 121940Z 25009G15KT 12/06 A2984 RMK A01 T01160063  RH  072%=      5-min Rain = 0
KHA1 121945Z 24009KT 12/07 A2984 RMK A01 T01180065  RH  072%=      5-min Rain = 0
KHA1 121950Z 23010KT 12/06 A2984 RMK A01 T01190063  RH  070%=      5-min Rain = 0
KHA1 121955Z 24009KT 12/06 A2983 RMK A01 T01190063  RH  071%=      5-min Rain = 0
KHA1 122000Z 24010KT 12/06 A2983 RMK A01 T01190062  RH  070%=      5-min Rain = 0
KHA1 122005Z 24010KT 12/06 A2983 RMK A01 T01180060  RH  069%=      5-min Rain = 0
KHA1 122010Z 24008KT 12/06 A2983 RMK A01 T01170058  RH  069%=      5-min Rain = 0
KHA1 122015Z 24008KT 12/06 A2982 RMK A01 T01190061  RH  069%=      5-min Rain = 0
KHA1 122020Z 25009KT 12/06 A2982 RMK A01 T01190061  RH  070%=      5-min Rain = 0
KHA1 122025Z 24008KT 12/06 A2982 RMK A01 T01180060  RH  069%=      5-min Rain = 0
KHA1 122030Z 24007KT 12/06 A2982 RMK A01 T01180059  RH  069%=      5-min Rain = 0
KHA1 122035Z 25007KT 12/06 A2981 RMK A01 T01190061  RH  069%=      5-min Rain = 0
KHA1 122040Z 25008KT 12/06 A2981 RMK A01 T01190061  RH  069%=      5-min Rain = 0
KHA1 122045Z 25008KT 12/06 A2981 RMK A01 T01210063  RH  069%=      5-min Rain = 0
KHA1 122050Z 23007KT 12/06 A2981 RMK A01 T01210063  RH  069%=      5-min Rain = 0
KHA1 122055Z 23008KT 12/06 A2981 RMK A01 T01220063  RH  069%=      5-min Rain = 0
KHA1 122100Z 24007KT 12/06 A2981 RMK A01 T01220062  RH  068%=      5-min Rain = 0
KHA1 122105Z 24008KT 12/06 A2981 RMK A01 T01220060  RH  067%=      5-min Rain = 0
KHA1 122110Z 24008KT 12/06 A298 RMK A01 T01230059  RH  066%=      5-min Rain = 0
KHA1 122115Z 23010KT 12/06 A298 RMK A01 T01230058  RH  066%=      5-min Rain = 0
KHA1 122120Z 23009KT 12/06 A298 RMK A01 T01220058  RH  066%=      5-min Rain = 0
KHA1 122125Z 24008KT 12/06 A298 RMK A01 T01240061  RH  067%=      5-min Rain = 0
KHA1 122130Z 23008KT 13/06 A298 RMK A01 T01250062  RH  067%=      5-min Rain = 0
KHA1 122135Z 23008KT 13/06 A298 RMK A01 T01250064  RH  068%=      5-min Rain = 0
KHA1 122140Z 23007KT 13/06 A298 RMK A01 T01250063  RH  067%=      5-min Rain = 0
KHA1 122145Z 23007KT 13/07 A298 RMK A01 T01250066  RH  069%=      5-min Rain = 0
KHA1 122150Z 23007KT 13/07 A2979 RMK A01 T01250065  RH  068%=      5-min Rain = 0
KHA1 122155Z 23007KT 12/06 A2979 RMK A01 T01240064  RH  069%=      5-min Rain = 0
KHA1 122200Z 23007KT 12/07 A2979 RMK A01 T01240066  RH  069%=      5-min Rain = 0
KHA1 122205Z 22006KT 12/07 A2979 RMK A01 T01230069  RH  071%=      5-min Rain = 0
KHA1 122210Z 22007KT 12/07 A2979 RMK A01 T01220069  RH  072%=      5-min Rain = 0
KHA1 122215Z 22008KT 12/07 A2979 RMK A01 T01210070  RH  073%=      5-min Rain = 0
KHA1 122220Z 21007KT 12/07 A2979 RMK A01 T01200071  RH  074%=      5-min Rain = 0
KHA1 122225Z 21006KT 12/07 A2979 RMK A01 T01200070  RH  074%=      5-min Rain = 0
KHA1 122230Z 20006KT 12/07 A2978 RMK A01 T01200070  RH  073%=      5-min Rain = 0
KHA1 122235Z 20005KT 12/07 A2978 RMK A01 T01210071  RH  073%=      5-min Rain = 0
KHA1 122240Z 20004KT 12/07 A2978 RMK A01 T01210072  RH  074%=      5-min Rain = 0
KHA1 122245Z 20004KT 12/07 A2977 RMK A01 T01210072  RH  074%=      5-min Rain = 0
KHA1 122250Z 19003KT 12/07 A2977 RMK A01 T01210071  RH  073%=      5-min Rain = 0
KHA1 122255Z 19002KT 12/07 A2977 RMK A01 T01210070  RH  073%=      5-min Rain = 0
KHA1 122300Z 17002KT 12/07 A2976 RMK A01 T01200069  RH  073%=      5-min Rain = 0
KHA1 122305Z 16002KT 12/07 A2976 RMK A01 T01200068  RH  073%=      5-min Rain = 0
KHA1 122310Z 16003KT 12/07 A2976 RMK A01 T01190068  RH  073%=      5-min Rain = 0
KHA1 122315Z 16004KT 12/07 A2976 RMK A01 T01190068  RH  073%=      5-min Rain = 0
KHA1 122320Z 18006KT 12/07 A2977 RMK A01 T01180069  RH  074%=      5-min Rain = 0
KHA1 122325Z 18006KT 12/07 A2977 RMK A01 T01170070  RH  075%=      5-min Rain = 0
KHA1 122330Z 18005KT 12/07 A2977 RMK A01 T01160069  RH  075%=      5-min Rain = 0
KHA1 122335Z 18005KT 12/07 A2976 RMK A01 T01150069  RH  075%=      5-min Rain = 0
KHA1 122340Z 18006KT 12/07 A2977 RMK A01 T01150068  RH  075%=      5-min Rain = 0
KHA1 122345Z 19006KT 12/07 A2976 RMK A01 T01150067  RH  074%=      5-min Rain = 0
KHA1 122350Z 19007KT 12/07 A2976 RMK A01 T01150067  RH  074%=      5-min Rain = 0
KHA1 122355Z 18007KT 12/07 A2976 RMK A01 T01150066  RH  074%=      5-min Rain = 0
KHA1 130000Z 18006KT 12/07 A2975 RMK A01 T01160066  RH  073%=      5-min Rain = 0
KHA1 130005Z 18006KT 12/07 A2975 RMK A01 T01170066  RH  073%=      5-min Rain = 0
KHA1 130010Z 18005KT 12/07 A2975 RMK A01 T01170066  RH  073%=      5-min Rain = 0
KHA1 130015Z 18005KT 12/07 A2975 RMK A01 T01170066  RH  073%=      5-min Rain = 0
KHA1 130020Z 19004KT 12/07 A2975 RMK A01 T01170066  RH  073%=      5-min Rain = 0
KHA1 130025Z 18003KT 12/07 A2975 RMK A01 T01160066  RH  073%=      5-min Rain = 0
KHA1 130030Z 17004KT 12/07 A2974 RMK A01 T01160065  RH  073%=      5-min Rain = 0
KHA1 130035Z 17006KT 12/07 A2974 RMK A01 T01170066  RH  073%=      5-min Rain = 0
KHA1 130040Z 17006KT 12/07 A2974 RMK A01 T01180065  RH  072%=      5-min Rain = 0
KHA1 130045Z 17006KT 12/06 A2974 RMK A01 T01190064  RH  071%=      5-min Rain = 0
KHA1 130050Z 17007KT 12/06 A2974 RMK A01 T01200064  RH  070%=      5-min Rain = 0
KHA1 130055Z 18008KT 12/06 A2974 RMK A01 T01230062  RH  068%=      5-min Rain = 0
KHA1 130100Z 18008KT 12/06 A2974 RMK A01 T01240062  RH  067%=      5-min Rain = 0
KHA1 130105Z 17008KT 13/06 A2974 RMK A01 T01250061  RH  067%=      5-min Rain = 0
KHA1 130110Z 16008G14KT 13/06 A2974 RMK A01 T01250062  RH  067%=      5-min Rain = 0
KHA1 130115Z 17009KT 12/06 A2974 RMK A01 T01240062  RH  067%=      5-min Rain = 0
KHA1 130120Z 17011KT 12/07 A2973 RMK A01 T01240066  RH  069%=      5-min Rain = 0
KHA1 130125Z 17010G15KT 12/07 A2973 RMK A01 T01240069  RH  071%=      5-min Rain = 0
KHA1 130130Z 18010KT 12/07 A2973 RMK A01 T01230072  RH  073%=      5-min Rain = 0
KHA1 130135Z 18011G16KT 12/07 A2973 RMK A01 T01210074  RH  075%=      5-min Rain = 0
KHA1 130140Z 18011KT 12/08 A2973 RMK A01 T01210076  RH  076%=      5-min Rain = 0
KHA1 130145Z 19012KT 12/08 A2973 RMK A01 T01210077  RH  077%=      5-min Rain = 0
KHA1 130150Z 18011KT 12/08 A2973 RMK A01 T01200079  RH  078%=      5-min Rain = 0
KHA1 130155Z 18011KT 12/08 A2973 RMK A01 T01220080  RH  078%=      5-min Rain = 0
KHA1 130200Z 19010KT 12/08 A2973 RMK A01 T01230081  RH  078%=      5-min Rain = 0
KHA1 130205Z 18009KT 12/08 A2973 RMK A01 T01230082  RH  078%=      5-min Rain = 0
KHA1 130210Z 18010KT 12/08 A2972 RMK A01 T01230082  RH  078%=      5-min Rain = 0
KHA1 130215Z 18009KT 12/08 A2972 RMK A01 T01220083  RH  079%=      5-min Rain = 0
KHA1 130220Z 20010KT 12/08 A2973 RMK A01 T01220083  RH  080%=      5-min Rain = 0
KHA1 130225Z 21011KT 12/08 A2974 RMK A01 T01200084  RH  081%=      5-min Rain = 0
KHA1 130230Z 22009KT 12/09 A2974 RMK A01 T01180085  RH  082%=      5-min Rain = 0
KHA1 130235Z 20008KT 12/09 A2973 RMK A01 T01150085  RH  084%=      5-min Rain = 0
KHA1 130240Z 15010KT 12/09 A2971 RMK A01 T01170085  RH  083%=      5-min Rain = 0
KHA1 130245Z 16011G16KT 12/08 A297 RMK A01 T01220084  RH  080%=      5-min Rain = 0
KHA1 130250Z 18012G17KT 13/08 A2971 RMK A01 T01270083  RH  077%=      5-min Rain = 0
KHA1 130255Z 20012KT 13/08 A2973 RMK A01 T01270083  RH  077%=      5-min Rain = 0
KHA1 130300Z 21011KT 13/08 A2973 RMK A01 T01260084  RH  078%=      5-min Rain = 0
KHA1 130305Z 21009KT 12/08 A2973 RMK A01 T01230084  RH  080%=      5-min Rain = 0
KHA1 130310Z 19010KT 12/08 A2972 RMK A01 T01220084  RH  080%=      5-min Rain = 0
KHA1 130315Z 18009KT 13/08 A2971 RMK A01 T01250083  RH  078%=      5-min Rain = 0
KHA1 130320Z 20009KT 12/08 A2971 RMK A01 T01240083  RH  078%=      5-min Rain = 0
KHA1 130325Z 18008KT 12/08 A2971 RMK A01 T01240082  RH  078%=      5-min Rain = 0
KHA1 130330Z 19008KT 13/08 A2971 RMK A01 T01250082  RH  077%=      5-min Rain = 0
KHA1 130335Z 21008KT 12/08 A2971 RMK A01 T01220082  RH  079%=      5-min Rain = 0
KHA1 130340Z 21007KT 12/08 A297 RMK A01 T01210082  RH  079%=      5-min Rain = 0
KHA1 130345Z 20007KT 12/08 A297 RMK A01 T01200082  RH  080%=      5-min Rain = 0
KHA1 130350Z 20008KT 12/08 A297 RMK A01 T01210082  RH  079%=      5-min Rain = 0
KHA1 130355Z 20007KT 12/08 A297 RMK A01 T01220082  RH  079%=      5-min Rain = 0
KHA1 130400Z 21008KT 12/08 A297 RMK A01 T01200082  RH  080%=      5-min Rain = 0
KHA1 130405Z 21009KT 12/08 A297 RMK A01 T01210082  RH  079%=      5-min Rain = 0
KHA1 130410Z 20008KT 12/08 A297 RMK A01 T01220081  RH  078%=      5-min Rain = 0
KHA1 130415Z 19007KT 12/08 A2969 RMK A01 T01220080  RH  078%=      5-min Rain = 0
KHA1 130420Z 21008KT 12/08 A2969 RMK A01 T01200080  RH  079%=      5-min Rain = 0
KHA1 130425Z 22010KT 12/08 A2969 RMK A01 T01200079  RH  078%=      5-min Rain = 0
KHA1 130430Z 22011KT 12/08 A297 RMK A01 T01200079  RH  078%=      5-min Rain = 0
KHA1 130435Z 22009KT 12/08 A297 RMK A01 T01190079  RH  078%=      5-min Rain = 0
KHA1 130440Z 21008KT 12/08 A297 RMK A01 T01150079  RH  080%=      5-min Rain = 0
KHA1 130445Z 20009KT 12/08 A297 RMK A01 T01170079  RH  080%=      5-min Rain = 0
KHA1 130450Z 20009KT 12/08 A297 RMK A01 T01170080  RH  080%=      5-min Rain = 0
KHA1 130455Z 20010KT 12/08 A297 RMK A01 T01170080  RH  080%=      5-min Rain = 0
KHA1 130500Z 19010KT 12/08 A297 RMK A01 T01170080  RH  080%=      5-min Rain = 0
KHA1 130505Z 19009KT 12/08 A297 RMK A01 T01170080  RH  080%=      5-min Rain = 0
KHA1 130510Z 19009KT 12/08 A297 RMK A01 T01170080  RH  080%=      5-min Rain = 0
KHA1 130515Z 19009KT 12/08 A297 RMK A01 T01170080  RH  080%=      5-min Rain = 0
KHA1 130520Z 19009KT 12/08 A2969 RMK A01 T01170080  RH  080%=      5-min Rain = 0
KHA1 130525Z 18007KT 12/08 A2969 RMK A01 T01150079  RH  081%=      5-min Rain = 0
KHA1 130530Z 19009KT 11/08 A2969 RMK A01 T01140079  RH  081%=      5-min Rain = 0
KHA1 130535Z 19008KT 12/08 A2969 RMK A01 T01150079  RH  081%=      5-min Rain = 0
KHA1 130540Z 19009KT 11/08 A2969 RMK A01 T01130079  RH  082%=      5-min Rain = 0
KHA1 130545Z 19009KT 11/08 A2969 RMK A01 T01140079  RH  081%=      5-min Rain = 0
KHA1 130550Z 19009KT 11/08 A2969 RMK A01 T01120079  RH  082%=      5-min Rain = 0
KHA1 130555Z 19009KT 11/08 A2969 RMK A01 T01110079  RH  083%=      5-min Rain = 0

Page generated in 0.0198 seconds.